sensor_id;sensor_type;location;lat;lon;timestamp;pressure;altitude;pressure_sealevel;temperature;humidity
47742;BME280;33504;52.066;6.096;2024-02-14T00:00:45;101258.25;;;7.93;58.49
47742;BME280;33504;52.066;6.096;2024-02-14T00:03:12;101251.88;;;8.49;57.58
47742;BME280;33504;52.066;6.096;2024-02-14T00:05:39;101262.30;;;7.64;59.38
47742;BME280;33504;52.066;6.096;2024-02-14T00:08:07;101247.74;;;7.54;59.80
47742;BME280;33504;52.066;6.096;2024-02-14T00:10:34;101246.46;;;7.85;59.70
47742;BME280;33504;52.066;6.096;2024-02-14T00:13:01;101237.91;;;8.31;59.26
47742;BME280;33504;52.066;6.096;2024-02-14T00:15:28;101243.29;;;8.19;58.63
47742;BME280;33504;52.066;6.096;2024-02-14T00:17:55;101243.88;;;8.19;58.93
47742;BME280;33504;52.066;6.096;2024-02-14T00:20:22;101237.65;;;8.16;58.70
47742;BME280;33504;52.066;6.096;2024-02-14T00:22:49;101236.00;;;8.36;58.34
47742;BME280;33504;52.066;6.096;2024-02-14T00:25:16;101230.60;;;9.04;58.00
47742;BME280;33504;52.066;6.096;2024-02-14T00:27:43;101228.08;;;8.39;58.29
47742;BME280;33504;52.066;6.096;2024-02-14T00:30:10;101231.73;;;8.28;58.49
47742;BME280;33504;52.066;6.096;2024-02-14T00:32:37;101225.66;;;8.47;58.06
47742;BME280;33504;52.066;6.096;2024-02-14T00:35:05;101227.98;;;8.50;58.31
47742;BME280;33504;52.066;6.096;2024-02-14T00:37:32;101229.78;;;8.53;58.31
47742;BME280;33504;52.066;6.096;2024-02-14T00:39:59;101231.14;;;8.26;58.97
47742;BME280;33504;52.066;6.096;2024-02-14T00:42:26;101223.39;;;7.97;59.53
47742;BME280;33504;52.066;6.096;2024-02-14T00:44:53;101229.58;;;8.55;58.91
47742;BME280;33504;52.066;6.096;2024-02-14T00:47:20;101215.39;;;8.49;58.76
47742;BME280;33504;52.066;6.096;2024-02-14T00:49:47;101213.58;;;8.32;59.26
47742;BME280;33504;52.066;6.096;2024-02-14T00:52:14;101211.29;;;8.25;59.45
47742;BME280;33504;52.066;6.096;2024-02-14T00:54:41;101210.09;;;8.27;59.51
47742;BME280;33504;52.066;6.096;2024-02-14T00:57:08;101208.04;;;9.07;59.00
47742;BME280;33504;52.066;6.096;2024-02-14T00:59:34;101211.50;;;8.74;58.56
47742;BME280;33504;52.066;6.096;2024-02-14T01:02:01;101205.67;;;8.35;59.45
47742;BME280;33504;52.066;6.096;2024-02-14T01:04:28;101211.45;;;8.72;58.81
47742;BME280;33504;52.066;6.096;2024-02-14T01:06:55;101208.62;;;8.85;58.82
47742;BME280;33504;52.066;6.096;2024-02-14T01:09:22;101202.28;;;8.82;58.67
47742;BME280;33504;52.066;6.096;2024-02-14T01:11:49;101204.18;;;8.60;59.08
47742;BME280;33504;52.066;6.096;2024-02-14T01:14:15;101200.20;;;8.53;59.27
47742;BME280;33504;52.066;6.096;2024-02-14T01:16:43;101196.41;;;8.68;58.99
47742;BME280;33504;52.066;6.096;2024-02-14T01:19:10;101195.36;;;8.69;59.08
47742;BME280;33504;52.066;6.096;2024-02-14T01:21:37;101200.90;;;8.81;58.79
47742;BME280;33504;52.066;6.096;2024-02-14T01:24:05;101191.32;;;8.63;59.31
47742;BME280;33504;52.066;6.096;2024-02-14T01:26:32;101195.17;;;8.54;59.49
47742;BME280;33504;52.066;6.096;2024-02-14T01:28:59;101188.01;;;8.77;59.17
47742;BME280;33504;52.066;6.096;2024-02-14T01:31:26;101190.15;;;8.42;59.99
47742;BME280;33504;52.066;6.096;2024-02-14T01:33:53;101192.38;;;8.65;59.47
47742;BME280;33504;52.066;6.096;2024-02-14T01:36:20;101187.45;;;9.12;59.08
47742;BME280;33504;52.066;6.096;2024-02-14T01:38:47;101187.80;;;8.66;58.90
47742;BME280;33504;52.066;6.096;2024-02-14T01:41:14;101184.00;;;9.11;58.80
47742;BME280;33504;52.066;6.096;2024-02-14T01:43:42;101190.02;;;8.82;58.77
47742;BME280;33504;52.066;6.096;2024-02-14T01:46:08;101187.80;;;9.04;58.96
47742;BME280;33504;52.066;6.096;2024-02-14T01:48:36;101179.73;;;8.83;59.60
47742;BME280;33504;52.066;6.096;2024-02-14T01:51:05;101180.07;;;8.95;59.56
47742;BME280;33504;52.066;6.096;2024-02-14T01:53:33;101174.27;;;9.08;58.65
47742;BME280;33504;52.066;6.096;2024-02-14T01:56:00;101174.44;;;9.01;58.68
47742;BME280;33504;52.066;6.096;2024-02-14T01:58:28;101174.91;;;9.19;58.46
47742;BME280;33504;52.066;6.096;2024-02-14T02:00:56;101183.92;;;9.38;58.13
47742;BME280;33504;52.066;6.096;2024-02-14T02:03:24;101177.92;;;9.52;58.45
47742;BME280;33504;52.066;6.096;2024-02-14T02:05:51;101177.51;;;9.29;59.05
47742;BME280;33504;52.066;6.096;2024-02-14T02:08:19;101190.38;;;9.00;59.06
47742;BME280;33504;52.066;6.096;2024-02-14T02:10:46;101181.74;;;9.41;58.19
47742;BME280;33504;52.066;6.096;2024-02-14T02:13:13;101179.66;;;9.29;58.58
47742;BME280;33504;52.066;6.096;2024-02-14T02:15:40;101183.08;;;8.58;59.52
47742;BME280;33504;52.066;6.096;2024-02-14T02:18:07;101177.24;;;9.58;58.16
47742;BME280;33504;52.066;6.096;2024-02-14T02:20:34;101175.41;;;9.15;59.03
47742;BME280;33504;52.066;6.096;2024-02-14T02:23:01;101180.05;;;9.12;58.80
47742;BME280;33504;52.066;6.096;2024-02-14T02:25:28;101172.22;;;9.48;58.07
47742;BME280;33504;52.066;6.096;2024-02-14T02:27:55;101177.75;;;9.49;58.58
47742;BME280;33504;52.066;6.096;2024-02-14T02:30:23;101176.44;;;9.47;59.22
47742;BME280;33504;52.066;6.096;2024-02-14T02:32:50;101175.42;;;9.42;59.55
47742;BME280;33504;52.066;6.096;2024-02-14T02:35:18;101174.81;;;8.94;60.08
47742;BME280;33504;52.066;6.096;2024-02-14T02:37:45;101178.30;;;9.62;59.27
47742;BME280;33504;52.066;6.096;2024-02-14T02:40:13;101178.32;;;9.25;59.54
47742;BME280;33504;52.066;6.096;2024-02-14T02:42:40;101177.33;;;9.05;59.55
47742;BME280;33504;52.066;6.096;2024-02-14T02:45:08;101177.32;;;9.48;59.41
47742;BME280;33504;52.066;6.096;2024-02-14T02:47:35;101176.76;;;9.31;59.19
47742;BME280;33504;52.066;6.096;2024-02-14T02:50:03;101173.98;;;9.55;59.24
47742;BME280;33504;52.066;6.096;2024-02-14T02:52:30;101183.95;;;9.56;58.83
47742;BME280;33504;52.066;6.096;2024-02-14T02:54:57;101179.08;;;9.46;59.18
47742;BME280;33504;52.066;6.096;2024-02-14T02:57:24;101184.48;;;9.76;59.02
47742;BME280;33504;52.066;6.096;2024-02-14T02:59:51;101182.85;;;9.92;58.19
47742;BME280;33504;52.066;6.096;2024-02-14T03:02:19;101185.81;;;9.97;58.12
47742;BME280;33504;52.066;6.096;2024-02-14T03:04:45;101183.20;;;9.73;58.49
47742;BME280;33504;52.066;6.096;2024-02-14T03:07:13;101182.84;;;9.96;58.23
47742;BME280;33504;52.066;6.096;2024-02-14T03:09:40;101181.26;;;9.95;58.59
47742;BME280;33504;52.066;6.096;2024-02-14T03:12:07;101186.67;;;9.79;58.62
47742;BME280;33504;52.066;6.096;2024-02-14T03:14:36;101186.23;;;9.61;59.09
47742;BME280;33504;52.066;6.096;2024-02-14T03:17:03;101189.61;;;9.79;58.71
47742;BME280;33504;52.066;6.096;2024-02-14T03:19:30;101191.54;;;9.63;59.60
47742;BME280;33504;52.066;6.096;2024-02-14T03:21:57;101188.72;;;9.67;59.19
47742;BME280;33504;52.066;6.096;2024-02-14T03:24:24;101192.62;;;9.06;60.35
47742;BME280;33504;52.066;6.096;2024-02-14T03:26:51;101196.36;;;8.83;61.39
47742;BME280;33504;52.066;6.096;2024-02-14T03:29:19;101192.22;;;9.44;60.25
47742;BME280;33504;52.066;6.096;2024-02-14T03:31:46;101189.31;;;9.51;60.29
47742;BME280;33504;52.066;6.096;2024-02-14T03:34:14;101193.10;;;9.52;60.92
47742;BME280;33504;52.066;6.096;2024-02-14T03:36:41;101188.88;;;9.85;59.58
47742;BME280;33504;52.066;6.096;2024-02-14T03:39:08;101200.10;;;9.65;59.43
47742;BME280;33504;52.066;6.096;2024-02-14T03:41:36;101192.00;;;9.91;58.94
47742;BME280;33504;52.066;6.096;2024-02-14T03:44:04;101189.36;;;9.40;60.35
47742;BME280;33504;52.066;6.096;2024-02-14T03:46:30;101196.07;;;9.55;60.38
47742;BME280;33504;52.066;6.096;2024-02-14T03:48:57;101196.69;;;9.96;59.36
47742;BME280;33504;52.066;6.096;2024-02-14T03:51:24;101199.49;;;9.72;59.99
47742;BME280;33504;52.066;6.096;2024-02-14T03:53:51;101201.18;;;9.95;59.87
47742;BME280;33504;52.066;6.096;2024-02-14T03:56:19;101199.49;;;9.97;59.75
47742;BME280;33504;52.066;6.096;2024-02-14T03:58:46;101197.34;;;9.87;59.55
47742;BME280;33504;52.066;6.096;2024-02-14T04:01:14;101201.62;;;10.36;59.00
47742;BME280;33504;52.066;6.096;2024-02-14T04:03:41;101195.69;;;10.03;59.25
47742;BME280;33504;52.066;6.096;2024-02-14T04:06:08;101201.06;;;10.41;59.02
47742;BME280;33504;52.066;6.096;2024-02-14T04:08:35;101209.18;;;9.74;59.95
47742;BME280;33504;52.066;6.096;2024-02-14T04:11:02;101205.79;;;9.92;59.84
47742;BME280;33504;52.066;6.096;2024-02-14T04:13:29;101207.87;;;10.30;60.09
47742;BME280;33504;52.066;6.096;2024-02-14T04:15:56;101215.77;;;10.00;60.25
47742;BME280;33504;52.066;6.096;2024-02-14T04:18:23;101209.65;;;9.83;60.21
47742;BME280;33504;52.066;6.096;2024-02-14T04:20:50;101215.04;;;10.02;59.76
47742;BME280;33504;52.066;6.096;2024-02-14T04:23:18;101207.64;;;10.55;58.69
47742;BME280;33504;52.066;6.096;2024-02-14T04:25:44;101214.34;;;10.32;59.07
47742;BME280;33504;52.066;6.096;2024-02-14T04:28:11;101219.34;;;10.47;58.85
47742;BME280;33504;52.066;6.096;2024-02-14T04:30:38;101220.56;;;10.66;58.62
47742;BME280;33504;52.066;6.096;2024-02-14T04:33:05;101218.16;;;10.27;59.76
47742;BME280;33504;52.066;6.096;2024-02-14T04:35:32;101217.96;;;10.04;59.99
47742;BME280;33504;52.066;6.096;2024-02-14T04:37:59;101224.55;;;9.97;60.16
47742;BME280;33504;52.066;6.096;2024-02-14T04:40:26;101221.59;;;10.08;59.90
47742;BME280;33504;52.066;6.096;2024-02-14T04:42:53;101229.33;;;10.31;59.51
47742;BME280;33504;52.066;6.096;2024-02-14T04:45:20;101225.03;;;10.75;58.47
47742;BME280;33504;52.066;6.096;2024-02-14T04:47:47;101232.29;;;9.84;60.22
47742;BME280;33504;52.066;6.096;2024-02-14T04:50:15;101235.61;;;10.22;59.63
47742;BME280;33504;52.066;6.096;2024-02-14T04:52:41;101234.82;;;10.08;59.51
47742;BME280;33504;52.066;6.096;2024-02-14T04:55:09;101235.26;;;10.14;59.36
47742;BME280;33504;52.066;6.096;2024-02-14T04:57:37;101238.29;;;10.62;58.59
47742;BME280;33504;52.066;6.096;2024-02-14T05:00:05;101240.87;;;9.97;59.39
47742;BME280;33504;52.066;6.096;2024-02-14T05:02:32;101244.14;;;10.40;58.92
47742;BME280;33504;52.066;6.096;2024-02-14T05:04:59;101256.40;;;10.24;59.60
47742;BME280;33504;52.066;6.096;2024-02-14T05:07:26;101251.57;;;10.50;59.36
47742;BME280;33504;52.066;6.096;2024-02-14T05:09:54;101249.79;;;10.57;58.87
47742;BME280;33504;52.066;6.096;2024-02-14T05:12:21;101252.52;;;10.92;58.43
47742;BME280;33504;52.066;6.096;2024-02-14T05:14:48;101252.69;;;10.66;58.94
47742;BME280;33504;52.066;6.096;2024-02-14T05:17:15;101260.50;;;10.18;58.73
47742;BME280;33504;52.066;6.096;2024-02-14T05:19:43;101264.27;;;10.26;58.47
47742;BME280;33504;52.066;6.096;2024-02-14T05:22:10;101266.75;;;10.79;58.69
47742;BME280;33504;52.066;6.096;2024-02-14T05:24:37;101263.98;;;10.83;58.68
47742;BME280;33504;52.066;6.096;2024-02-14T05:27:05;101266.68;;;10.33;58.58
47742;BME280;33504;52.066;6.096;2024-02-14T05:29:32;101270.13;;;10.65;58.12
47742;BME280;33504;52.066;6.096;2024-02-14T05:31:59;101267.88;;;10.74;57.89
47742;BME280;33504;52.066;6.096;2024-02-14T05:34:26;101267.40;;;10.83;57.88
47742;BME280;33504;52.066;6.096;2024-02-14T05:36:54;101269.10;;;10.34;58.76
47742;BME280;33504;52.066;6.096;2024-02-14T05:39:21;101272.79;;;10.80;58.47
47742;BME280;33504;52.066;6.096;2024-02-14T05:41:48;101275.58;;;11.12;57.80
47742;BME280;33504;52.066;6.096;2024-02-14T05:44:15;101275.31;;;11.11;57.76
47742;BME280;33504;52.066;6.096;2024-02-14T05:46:42;101271.92;;;10.93;57.78
47742;BME280;33504;52.066;6.096;2024-02-14T05:49:10;101273.00;;;11.23;57.76
47742;BME280;33504;52.066;6.096;2024-02-14T05:51:37;101282.16;;;10.57;58.36
47742;BME280;33504;52.066;6.096;2024-02-14T05:54:05;101283.44;;;10.40;58.90
47742;BME280;33504;52.066;6.096;2024-02-14T05:56:32;101284.01;;;11.33;57.96
47742;BME280;33504;52.066;6.096;2024-02-14T05:58:59;101287.44;;;10.83;58.93
47742;BME280;33504;52.066;6.096;2024-02-14T06:01:25;101289.98;;;10.54;58.76
47742;BME280;33504;52.066;6.096;2024-02-14T06:03:53;101291.32;;;10.68;58.38
47742;BME280;33504;52.066;6.096;2024-02-14T06:06:20;101295.05;;;10.24;59.75
47742;BME280;33504;52.066;6.096;2024-02-14T06:08:47;101296.55;;;10.72;59.59
47742;BME280;33504;52.066;6.096;2024-02-14T06:11:15;101294.46;;;10.69;59.15
47742;BME280;33504;52.066;6.096;2024-02-14T06:13:41;101295.28;;;10.37;59.15
47742;BME280;33504;52.066;6.096;2024-02-14T06:16:08;101301.49;;;11.24;58.36
47742;BME280;33504;52.066;6.096;2024-02-14T06:18:35;101299.72;;;10.98;57.99
47742;BME280;33504;52.066;6.096;2024-02-14T06:21:03;101297.07;;;10.76;58.11
47742;BME280;33504;52.066;6.096;2024-02-14T06:23:30;101302.28;;;10.92;57.99
47742;BME280;33504;52.066;6.096;2024-02-14T06:25:58;101299.48;;;10.89;57.80
47742;BME280;33504;52.066;6.096;2024-02-14T06:28:25;101299.42;;;11.06;57.77
47742;BME280;33504;52.066;6.096;2024-02-14T06:30:52;101305.03;;;11.23;57.42
47742;BME280;33504;52.066;6.096;2024-02-14T06:33:19;101308.32;;;11.30;57.28
47742;BME280;33504;52.066;6.096;2024-02-14T06:35:47;101314.21;;;10.70;58.46
47742;BME280;33504;52.066;6.096;2024-02-14T06:38:14;101309.36;;;11.30;57.16
47742;BME280;33504;52.066;6.096;2024-02-14T06:40:42;101316.39;;;11.14;57.52
47742;BME280;33504;52.066;6.096;2024-02-14T06:43:08;101319.54;;;11.34;57.16
47742;BME280;33504;52.066;6.096;2024-02-14T06:45:36;101322.98;;;11.19;57.43
47742;BME280;33504;52.066;6.096;2024-02-14T06:48:04;101329.07;;;11.22;57.44
47742;BME280;33504;52.066;6.096;2024-02-14T06:50:31;101329.68;;;11.28;57.44
47742;BME280;33504;52.066;6.096;2024-02-14T06:52:58;101337.64;;;10.70;57.95
47742;BME280;33504;52.066;6.096;2024-02-14T06:55:26;101332.43;;;10.95;57.75
47742;BME280;33504;52.066;6.096;2024-02-14T06:57:53;101338.65;;;11.14;57.65
47742;BME280;33504;52.066;6.096;2024-02-14T07:00:21;101334.90;;;11.03;57.95
47742;BME280;33504;52.066;6.096;2024-02-14T07:02:48;101340.61;;;10.98;58.18
47742;BME280;33504;52.066;6.096;2024-02-14T07:05:16;101345.01;;;11.00;58.11
47742;BME280;33504;52.066;6.096;2024-02-14T07:07:42;101346.07;;;11.37;57.50
47742;BME280;33504;52.066;6.096;2024-02-14T07:10:10;101347.13;;;11.18;57.79
47742;BME280;33504;52.066;6.096;2024-02-14T07:12:38;101354.07;;;11.09;58.01
47742;BME280;33504;52.066;6.096;2024-02-14T07:15:06;101348.30;;;11.15;57.96
47742;BME280;33504;52.066;6.096;2024-02-14T07:17:33;101350.42;;;11.02;58.19
47742;BME280;33504;52.066;6.096;2024-02-14T07:20:00;101344.35;;;11.29;57.82
47742;BME280;33504;52.066;6.096;2024-02-14T07:22:27;101347.92;;;11.15;58.16
47742;BME280;33504;52.066;6.096;2024-02-14T07:24:54;101351.73;;;10.91;58.59
47742;BME280;33504;52.066;6.096;2024-02-14T07:27:21;101349.48;;;11.01;58.48
47742;BME280;33504;52.066;6.096;2024-02-14T07:29:48;101351.40;;;11.34;57.93
47742;BME280;33504;52.066;6.096;2024-02-14T07:32:14;101356.33;;;11.21;58.00
47742;BME280;33504;52.066;6.096;2024-02-14T07:34:42;101351.89;;;11.23;58.50
47742;BME280;33504;52.066;6.096;2024-02-14T07:37:09;101355.62;;;11.18;58.36
47742;BME280;33504;52.066;6.096;2024-02-14T07:39:37;101349.79;;;11.55;57.60
47742;BME280;33504;52.066;6.096;2024-02-14T07:42:05;101348.19;;;11.40;57.91
47742;BME280;33504;52.066;6.096;2024-02-14T07:44:32;101352.31;;;11.43;57.99
47742;BME280;33504;52.066;6.096;2024-02-14T07:46:59;101352.77;;;11.59;57.64
47742;BME280;33504;52.066;6.096;2024-02-14T07:49:26;101354.01;;;11.53;57.84
47742;BME280;33504;52.066;6.096;2024-02-14T07:51:54;101355.11;;;11.12;58.20
47742;BME280;33504;52.066;6.096;2024-02-14T07:54:21;101355.39;;;11.60;57.88
47742;BME280;33504;52.066;6.096;2024-02-14T07:56:48;101359.78;;;11.52;57.97
47742;BME280;33504;52.066;6.096;2024-02-14T07:59:15;101361.75;;;11.53;58.04
47742;BME280;33504;52.066;6.096;2024-02-14T08:01:42;101359.23;;;11.35;58.37
47742;BME280;33504;52.066;6.096;2024-02-14T08:04:09;101357.60;;;11.58;58.08
47742;BME280;33504;52.066;6.096;2024-02-14T08:06:37;101356.45;;;11.28;58.71
47742;BME280;33504;52.066;6.096;2024-02-14T08:09:04;101359.70;;;11.12;58.97
47742;BME280;33504;52.066;6.096;2024-02-14T08:11:31;101357.67;;;11.11;59.02
47742;BME280;33504;52.066;6.096;2024-02-14T08:13:58;101367.56;;;11.42;58.60
47742;BME280;33504;52.066;6.096;2024-02-14T08:16:25;101369.48;;;11.05;59.18
47742;BME280;33504;52.066;6.096;2024-02-14T08:18:52;101366.21;;;11.54;58.30
47742;BME280;33504;52.066;6.096;2024-02-14T08:21:19;101367.60;;;11.44;58.58
47742;BME280;33504;52.066;6.096;2024-02-14T08:23:46;101361.25;;;11.66;57.77
47742;BME280;33504;52.066;6.096;2024-02-14T08:26:16;101374.42;;;11.47;58.42
47742;BME280;33504;52.066;6.096;2024-02-14T08:28:43;101376.94;;;10.96;59.41
47742;BME280;33504;52.066;6.096;2024-02-14T08:31:11;101374.52;;;11.39;59.00
47742;BME280;33504;52.066;6.096;2024-02-14T08:33:38;101372.28;;;11.00;59.70
47742;BME280;33504;52.066;6.096;2024-02-14T08:36:06;101372.97;;;11.27;58.82
47742;BME280;33504;52.066;6.096;2024-02-14T08:38:33;101379.86;;;11.35;58.65
47742;BME280;33504;52.066;6.096;2024-02-14T08:41:01;101384.27;;;11.50;58.79
47742;BME280;33504;52.066;6.096;2024-02-14T08:43:28;101388.04;;;11.61;58.50
47742;BME280;33504;52.066;6.096;2024-02-14T08:45:55;101389.03;;;11.42;58.94
47742;BME280;33504;52.066;6.096;2024-02-14T08:48:22;101387.63;;;11.93;57.97
47742;BME280;33504;52.066;6.096;2024-02-14T08:50:49;101389.43;;;11.39;58.79
47742;BME280;33504;52.066;6.096;2024-02-14T08:53:17;101386.93;;;11.62;58.70
47742;BME280;33504;52.066;6.096;2024-02-14T08:55:44;101392.43;;;11.37;59.03
47742;BME280;33504;52.066;6.096;2024-02-14T08:58:11;101395.56;;;11.71;58.55
47742;BME280;33504;52.066;6.096;2024-02-14T09:00:38;101394.82;;;11.43;59.10
47742;BME280;33504;52.066;6.096;2024-02-14T09:03:06;101398.36;;;11.21;59.69
47742;BME280;33504;52.066;6.096;2024-02-14T09:05:33;101396.10;;;11.74;58.68
47742;BME280;33504;52.066;6.096;2024-02-14T09:08:00;101396.63;;;11.54;59.08
47742;BME280;33504;52.066;6.096;2024-02-14T09:10:27;101399.44;;;11.80;58.30
47742;BME280;33504;52.066;6.096;2024-02-14T09:12:55;101396.74;;;12.04;57.69
47742;BME280;33504;52.066;6.096;2024-02-14T09:15:22;101399.87;;;11.45;58.34
47742;BME280;33504;52.066;6.096;2024-02-14T09:17:49;101402.84;;;11.79;58.72
47742;BME280;33504;52.066;6.096;2024-02-14T09:20:16;101404.90;;;11.66;58.52
47742;BME280;33504;52.066;6.096;2024-02-14T09:22:43;101406.94;;;12.13;58.27
47742;BME280;33504;52.066;6.096;2024-02-14T09:25:10;101407.34;;;12.04;57.94
47742;BME280;33504;52.066;6.096;2024-02-14T09:27:37;101406.42;;;11.81;57.88
47742;BME280;33504;52.066;6.096;2024-02-14T09:30:05;101407.75;;;12.30;57.43
47742;BME280;33504;52.066;6.096;2024-02-14T09:32:33;101412.15;;;12.19;57.59
47742;BME280;33504;52.066;6.096;2024-02-14T09:35:00;101414.93;;;12.16;57.09
47742;BME280;33504;52.066;6.096;2024-02-14T09:37:27;101423.45;;;11.43;57.92
47742;BME280;33504;52.066;6.096;2024-02-14T09:39:54;101424.30;;;11.54;58.04
47742;BME280;33504;52.066;6.096;2024-02-14T09:42:28;101423.31;;;12.19;57.36
47742;BME280;33504;52.066;6.096;2024-02-14T09:44:59;101432.76;;;12.12;57.51
47742;BME280;33504;52.066;6.096;2024-02-14T09:47:29;101434.58;;;11.88;57.89
47742;BME280;33504;52.066;6.096;2024-02-14T09:49:57;101429.76;;;12.00;57.44
47742;BME280;33504;52.066;6.096;2024-02-14T09:52:25;101433.35;;;11.65;57.95
47742;BME280;33504;52.066;6.096;2024-02-14T09:54:53;101432.30;;;11.97;57.71
47742;BME280;33504;52.066;6.096;2024-02-14T09:57:22;101437.43;;;12.00;57.95
47742;BME280;33504;52.066;6.096;2024-02-14T09:59:50;101429.06;;;11.87;57.87
47742;BME280;33504;52.066;6.096;2024-02-14T10:02:18;101436.64;;;12.24;57.39
47742;BME280;33504;52.066;6.096;2024-02-14T10:04:45;101431.99;;;11.90;58.42
47742;BME280;33504;52.066;6.096;2024-02-14T10:07:12;101436.51;;;11.89;58.34
47742;BME280;33504;52.066;6.096;2024-02-14T10:09:40;101428.93;;;11.60;58.44
47742;BME280;33504;52.066;6.096;2024-02-14T10:12:08;101433.57;;;12.13;57.67
47742;BME280;33504;52.066;6.096;2024-02-14T10:14:35;101448.13;;;11.60;58.78
47742;BME280;33504;52.066;6.096;2024-02-14T10:17:03;101439.09;;;11.67;58.90
47742;BME280;33504;52.066;6.096;2024-02-14T10:19:30;101436.41;;;11.93;58.94
47742;BME280;33504;52.066;6.096;2024-02-14T10:21:58;101443.09;;;11.43;59.18
47742;BME280;33504;52.066;6.096;2024-02-14T10:24:26;101449.22;;;11.95;58.25
47742;BME280;33504;52.066;6.096;2024-02-14T10:26:53;101451.18;;;11.72;58.53
47742;BME280;33504;52.066;6.096;2024-02-14T10:29:21;101453.89;;;12.41;58.04
47742;BME280;33504;52.066;6.096;2024-02-14T10:31:48;101461.05;;;12.09;58.62
47742;BME280;33504;52.066;6.096;2024-02-14T10:34:15;101453.50;;;11.78;58.44
47742;BME280;33504;52.066;6.096;2024-02-14T10:36:43;101456.19;;;11.93;58.88
47742;BME280;33504;52.066;6.096;2024-02-14T10:39:11;101456.00;;;11.90;58.94
47742;BME280;33504;52.066;6.096;2024-02-14T10:41:39;101456.92;;;11.97;59.27
47742;BME280;33504;52.066;6.096;2024-02-14T10:44:06;101456.07;;;12.25;58.06
47742;BME280;33504;52.066;6.096;2024-02-14T10:46:36;101461.46;;;11.72;59.49
47742;BME280;33504;52.066;6.096;2024-02-14T10:49:04;101463.06;;;11.93;59.21
47742;BME280;33504;52.066;6.096;2024-02-14T10:51:33;101459.23;;;12.20;58.22
47742;BME280;33504;52.066;6.096;2024-02-14T10:54:02;101461.66;;;12.07;58.59
47742;BME280;33504;52.066;6.096;2024-02-14T10:56:30;101458.25;;;12.42;58.16
47742;BME280;33504;52.066;6.096;2024-02-14T10:58:57;101465.80;;;12.03;58.69
47742;BME280;33504;52.066;6.096;2024-02-14T11:01:25;101462.40;;;12.18;58.59
47742;BME280;33504;52.066;6.096;2024-02-14T11:03:53;101469.28;;;12.02;58.77
47742;BME280;33504;52.066;6.096;2024-02-14T11:06:21;101470.73;;;12.34;58.13
47742;BME280;33504;52.066;6.096;2024-02-14T11:08:57;101466.44;;;12.81;57.48
47742;BME280;33504;52.066;6.096;2024-02-14T11:11:25;101468.26;;;11.89;58.35
47742;BME280;33504;52.066;6.096;2024-02-14T11:13:53;101455.14;;;12.16;58.12
47742;BME280;33504;52.066;6.096;2024-02-14T11:16:25;101458.86;;;12.81;57.26
47742;BME280;33504;52.066;6.096;2024-02-14T11:18:52;101462.03;;;12.65;57.70
47742;BME280;33504;52.066;6.096;2024-02-14T11:21:19;101461.32;;;12.73;57.67
47742;BME280;33504;52.066;6.096;2024-02-14T11:23:52;101455.83;;;12.32;58.38
47742;BME280;33504;52.066;6.096;2024-02-14T11:26:19;101456.35;;;12.73;57.74
47742;BME280;33504;52.066;6.096;2024-02-14T11:28:47;101456.71;;;12.66;58.04
47742;BME280;33504;52.066;6.096;2024-02-14T11:31:16;101448.64;;;12.12;58.17
47742;BME280;33504;52.066;6.096;2024-02-14T11:33:43;101447.22;;;12.58;57.67
47742;BME280;33504;52.066;6.096;2024-02-14T11:36:11;101449.16;;;12.60;58.41
47742;BME280;33504;52.066;6.096;2024-02-14T11:38:40;101455.33;;;12.78;57.93
47742;BME280;33504;52.066;6.096;2024-02-14T11:41:08;101453.66;;;12.58;57.75
47742;BME280;33504;52.066;6.096;2024-02-14T11:43:36;101441.18;;;12.99;57.62
47742;BME280;33504;52.066;6.096;2024-02-14T11:46:04;101439.51;;;12.64;58.36
47742;BME280;33504;52.066;6.096;2024-02-14T11:48:32;101432.22;;;12.57;58.03
47742;BME280;33504;52.066;6.096;2024-02-14T11:50:58;101431.48;;;12.55;58.62
47742;BME280;33504;52.066;6.096;2024-02-14T11:53:26;101437.98;;;12.84;58.12
47742;BME280;33504;52.066;6.096;2024-02-14T11:55:53;101440.25;;;12.53;58.53
47742;BME280;33504;52.066;6.096;2024-02-14T11:58:19;101442.61;;;12.70;58.20
47742;BME280;33504;52.066;6.096;2024-02-14T12:00:47;101443.15;;;13.01;58.12
47742;BME280;33504;52.066;6.096;2024-02-14T12:03:18;101442.87;;;12.75;58.35
47742;BME280;33504;52.066;6.096;2024-02-14T12:05:47;101437.97;;;12.54;58.55
47742;BME280;33504;52.066;6.096;2024-02-14T12:08:15;101432.05;;;12.59;58.85
47742;BME280;33504;52.066;6.096;2024-02-14T12:10:42;101435.11;;;12.70;58.70
47742;BME280;33504;52.066;6.096;2024-02-14T12:13:11;101437.71;;;12.22;59.43
47742;BME280;33504;52.066;6.096;2024-02-14T12:15:39;101434.40;;;12.34;59.25
47742;BME280;33504;52.066;6.096;2024-02-14T12:18:08;101432.77;;;12.01;58.86
47742;BME280;33504;52.066;6.096;2024-02-14T12:20:36;101431.46;;;12.54;58.94
47742;BME280;33504;52.066;6.096;2024-02-14T12:23:04;101427.02;;;12.77;58.69
47742;BME280;33504;52.066;6.096;2024-02-14T12:25:32;101424.42;;;12.92;58.48
47742;BME280;33504;52.066;6.096;2024-02-14T12:28:00;101424.18;;;12.83;57.95
47742;BME280;33504;52.066;6.096;2024-02-14T12:30:42;101428.53;;;12.29;59.26
47742;BME280;33504;52.066;6.096;2024-02-14T12:33:10;101423.43;;;13.15;58.15
47742;BME280;33504;52.066;6.096;2024-02-14T12:35:41;101424.02;;;13.01;58.16
47742;BME280;33504;52.066;6.096;2024-02-14T12:38:09;101432.05;;;12.78;58.24
47742;BME280;33504;52.066;6.096;2024-02-14T12:40:36;101434.43;;;12.72;58.36
47742;BME280;33504;52.066;6.096;2024-02-14T12:43:04;101429.86;;;13.22;58.03
47742;BME280;33504;52.066;6.096;2024-02-14T12:45:30;101437.46;;;12.69;58.75
47742;BME280;33504;52.066;6.096;2024-02-14T12:47:57;101439.04;;;12.69;58.07
47742;BME280;33504;52.066;6.096;2024-02-14T12:50:24;101427.21;;;13.16;58.15
47742;BME280;33504;52.066;6.096;2024-02-14T12:52:51;101430.92;;;12.72;58.54